Pagina principale
METAR-TAF:

METAR-TAF

Aeroporti :

Tarawa, Kiribati

Aeroporto di Bonriki

latitudine: 01-21N, longitudine: 172-55E, altezza: 2 m

Osservazione

Il bollettino è stato emesso 33 minuti fa, alle 05:00 UTC
Vento 13 kt da est/nord-est
Temperature 29°C
Umidità 74%
Pressione 1002 hPa
Visibilità 10 km o più
Poco nuvoloso ad un'altezza di 2000 ft
Nuvoloso ad un'altezza di 30000 ft

METAR: NGTA 240500Z 07013KT 9999 FEW020 BKN300 29/24 Q1002

Ora: 19:33 (05:33 UTC)

Previsione

Il bollettino è stato emesso 6 ore e 12 minuti fa, alle 23:21 UTC
Previsione valida dal 24 alle 00 UTC al 24 alle 24 UTC
Vento 9 kt da est
Visibilità 10 km o più
Poco nuvoloso ad un'altezza di 1900 ft
Nubi sparse ad un'altezza di 4000 ft

TAF: NGTA 232321Z 2400/2424 10009KT 9999 FEW019 SCT040

Osservazioni e previsioni meteorologiche di più di 4000 aeroporti (messaggi METAR e TAF).

Le stazioni disponibili sono rappresentate dai dischi gialli e rossi sulla carta.

Puntare il mouse per vedere il nome della stazione.

Clicca sopra per visualizzare le osservazioni e previsioni meteorologiche.

Per cambiare la mappa : fare clic sui pulsanti verdi con una croce nera per ingrandire, il pulsante verde con un trattino per diminuire, o sulla freccia verde per le mappe adiacenti.


METAR-TAF: